Time;durP1;ratioP1;P1;durP2;ratioP2;P2;SDS_P1;SDS_P2;PMS_P1;PMS_P2;Temp;Humidity;BMP_temperature;BMP_pressure;BME280_temperature;BME280_humidity;BME280_pressure;Samples;Min_cycle;Max_cycle;Signal;HPM_P1;HPM_P2
2021/09/29 00:01:12;;;;;;;;;5.00;4.00;;;;;16.06;62.87;101484.81;4975576;28;45846;-71
2021/09/29 00:03:38;;;;;;;;;8.75;4.25;;;;;16.12;62.98;101486.28;4975026;28;46404;-71
2021/09/29 00:06:04;;;;;;;;;3.25;2.00;;;;;16.14;63.27;101484.41;4975230;28;45540;-71
2021/09/29 00:08:30;;;;;;;;;1.50;1.00;;;;;16.17;63.73;101482.44;4976128;28;45548;-71
2021/09/29 00:10:55;;;;;;;;;5.50;2.50;;;;;16.06;63.72;101458.28;4977020;28;45447;-71
2021/09/29 00:13:23;;;;;;;;;0.25;0.25;;;;;16.20;63.97;101481.41;4975738;28;46774;-71
2021/09/29 00:15:50;;;;;;;;;1.00;1.00;;;;;16.17;63.66;101465.66;4975234;28;45318;-71
2021/09/29 00:18:16;;;;;;;;;1.75;1.00;;;;;16.15;63.70;101470.22;4975562;28;45654;-71
2021/09/29 00:20:41;;;;;;;;;1.00;1.00;;;;;16.09;63.79;101458.13;4974400;28;45385;-72
2021/09/29 00:23:07;;;;;;;;;1.00;0.25;;;;;16.09;63.97;101455.50;4973594;28;46427;-72
2021/09/29 00:25:32;;;;;;;;;1.75;1.75;;;;;16.09;64.25;101459.94;4973912;28;45376;-72
2021/09/29 00:27:57;;;;;;;;;0.75;0.75;;;;;16.07;64.66;101461.78;4975434;28;45376;-71
2021/09/29 00:30:23;;;;;;;;;1.25;1.00;;;;;16.08;64.19;101472.34;4975419;28;45249;-71
2021/09/29 00:32:48;;;;;;;;;1.50;1.50;;;;;16.05;63.84;101459.25;4975366;28;47061;-71
2021/09/29 00:35:15;;;;;;;;;1.00;1.00;;;;;16.05;64.28;101458.38;4975232;28;45471;-72
2021/09/29 00:37:41;;;;;;;;;2.00;1.00;;;;;16.03;64.58;101466.44;4975747;28;45480;-72
2021/09/29 00:40:08;;;;;;;;;0.00;0.00;;;;;16.02;64.88;101461.19;4975296;28;45439;-71
2021/09/29 00:42:34;;;;;;;;;1.50;1.25;;;;;16.03;64.56;101457.63;4974938;28;46952;-72
2021/09/29 00:44:59;;;;;;;;;0.50;0.00;;;;;15.89;64.77;101430.06;4974920;28;45400;-72
2021/09/29 00:47:27;;;;;;;;;1.25;0.75;;;;;16.05;64.80;101448.63;4975665;28;45519;-71
2021/09/29 00:49:52;;;;;;;;;2.00;1.00;;;;;16.04;65.07;101438.13;4971944;28;45462;-72
2021/09/29 00:52:18;;;;;;;;;4.00;1.00;;;;;16.02;64.42;101437.31;4968617;28;46270;-72
2021/09/29 00:54:43;;;;;;;;;1.00;1.00;;;;;16.00;64.79;101433.91;4971970;28;45533;-71
2021/09/29 00:57:09;;;;;;;;;0.75;0.75;;;;;16.05;64.99;101439.81;4973480;28;45300;-71
2021/09/29 00:59:35;;;;;;;;;2.00;0.50;;;;;16.02;64.60;101439.97;4975528;28;45563;-71
2021/09/29 01:02:01;;;;;;;;;0.00;0.00;;;;;16.01;64.98;101441.78;4974933;28;49684;-71
2021/09/29 01:04:27;;;;;;;;;1.00;1.00;;;;;16.01;65.09;101441.78;4975060;28;45798;-71
2021/09/29 01:07:01;;;;;;;;;0.00;0.00;;;;;15.98;65.13;101452.56;4974349;28;45377;-71
2021/09/29 01:09:43;;;;;;;;;2.75;1.00;;;;;15.93;65.21;101433.41;4974414;28;45459;-71
2021/09/29 01:12:23;;;;;;;;;1.00;1.00;;;;;15.96;65.29;101441.16;4973437;28;47079;-72
2021/09/29 01:15:01;;;;;;;;;2.00;0.00;;;;;15.96;65.13;101435.88;4962114;28;45606;-71
2021/09/29 01:17:28;;;;;;;;;1.75;1.00;;;;;15.93;65.03;101428.09;4959501;28;45505;-71
2021/09/29 01:20:05;;;;;;;;;3.00;1.00;;;;;15.93;65.42;101433.41;4975314;28;45534;-70
2021/09/29 01:22:58;;;;;;;;;1.50;0.75;;;;;15.93;65.27;101427.25;4964757;28;46380;-70
2021/09/29 01:25:49;;;;;;;;;0.50;0.00;;;;;15.90;65.37;101431.75;4974640;28;45745;-70
2021/09/29 01:28:18;;;;;;;;;4.25;0.75;;;;;15.89;65.72;101427.41;4964484;28;45630;-70
2021/09/29 01:30:44;;;;;;;;;1.00;1.00;;;;;15.87;66.09;101420.50;4971118;28;45653;-71
2021/09/29 01:33:11;;;;;;;;;1.25;0.00;;;;;15.88;66.01;101423.03;4974749;28;46502;-70
2021/09/29 01:35:36;;;;;;;;;2.00;1.00;;;;;15.87;66.12;101418.69;4974713;28;45684;-70
2021/09/29 01:38:02;;;;;;;;;0.50;0.50;;;;;15.88;65.89;101422.19;4974383;28;45427;-70
2021/09/29 01:40:28;;;;;;;;;1.50;1.00;;;;;15.85;66.38;101423.19;4969931;28;45438;-70
2021/09/29 01:42:53;;;;;;;;;0.25;0.25;;;;;15.89;66.09;101418.59;4970487;28;46253;-71
2021/09/29 01:45:19;;;;;;;;;2.00;0.00;;;;;15.89;66.31;101408.84;4974312;28;45482;-70
2021/09/29 01:47:47;;;;;;;;;0.00;0.00;;;;;15.90;66.75;101409.69;4974552;28;45592;-70
2021/09/29 01:50:13;;;;;;;;;0.75;0.75;;;;;15.91;67.02;101408.75;4974053;28;45498;-70
2021/09/29 01:52:43;;;;;;;;;0.00;0.00;;;;;15.86;66.96;101403.69;4974016;28;46543;-71
2021/09/29 01:55:16;;;;;;;;;1.00;1.00;;;;;15.88;66.97;101404.50;4973877;28;46813;-70
2021/09/29 01:57:41;;;;;;;;;2.00;0.00;;;;;15.90;67.24;101397.31;4973764;28;45416;-71
2021/09/29 02:00:07;;;;;;;;;1.75;1.25;;;;;15.91;67.68;101406.97;4973593;28;45676;-70
2021/09/29 02:02:33;;;;;;;;;0.00;0.00;;;;;15.91;67.54;101406.97;4974563;28;46646;-70
2021/09/29 02:04:58;;;;;;;;;3.50;0.00;;;;;15.89;67.15;101405.34;4974578;28;45413;-71
2021/09/29 02:07:26;;;;;;;;;0.00;0.00;;;;;15.89;67.41;101406.19;4974430;28;45430;-72
2021/09/29 02:09:52;;;;;;;;;0.00;0.00;;;;;15.82;67.55;101402.19;4974223;28;45396;-73
2021/09/29 02:12:18;;;;;;;;;2.75;0.75;;;;;15.77;67.91;101390.97;4973304;28;45966;-72
2021/09/29 02:14:43;;;;;;;;;1.00;1.00;;;;;15.72;68.47;101394.81;4974314;28;45413;-73
2021/09/29 02:17:09;;;;;;;;;1.25;0.75;;;;;15.77;68.60;101403.38;4958968;28;45791;-72
2021/09/29 02:19:35;;;;;;;;;0.50;0.50;;;;;15.76;68.86;101396.34;4977266;28;45573;-73
2021/09/29 02:22:00;;;;;;;;;0.50;0.50;;;;;15.80;69.21;101397.88;4974105;28;46651;-73
2021/09/29 02:24:26;;;;;;;;;1.00;1.00;;;;;15.81;69.31;101391.63;4972285;28;46071;-72
2021/09/29 02:26:51;;;;;;;;;1.75;1.00;;;;;15.82;69.35;101386.28;4976281;28;45584;-73
2021/09/29 02:29:17;;;;;;;;;2.00;0.00;;;;;15.86;69.62;101393.09;4961971;28;45309;-72
2021/09/29 02:31:43;;;;;;;;;0.00;0.00;;;;;15.83;69.47;101381.81;4964283;28;45435;-73
2021/09/29 02:34:08;;;;;;;;;1.50;1.00;;;;;15.85;69.70;101388.75;4976918;28;45309;-71
2021/09/29 02:36:35;;;;;;;;;0.00;0.00;;;;;15.85;69.96;101395.84;4977235;28;45760;-73
2021/09/29 02:39:00;;;;;;;;;2.00;1.00;;;;;15.89;70.25;101408.84;4976924;28;45562;-72
2021/09/29 02:41:27;;;;;;;;;0.75;0.00;;;;;15.86;69.96;101392.25;4976806;28;45325;-72
2021/09/29 02:43:52;;;;;;;;;0.00;0.00;;;;;15.93;70.75;101400.75;4973799;28;45470;-72
2021/09/29 02:46:17;;;;;;;;;1.00;1.00;;;;;15.95;70.72;101409.44;4977263;28;45336;-72
2021/09/29 02:48:43;;;;;;;;;0.00;0.00;;;;;15.96;70.62;101405.84;4976424;28;45478;-72
2021/09/29 02:51:08;;;;;;;;;1.50;1.00;;;;;15.98;70.54;101398.69;4974943;28;46122;-72
2021/09/29 02:53:34;;;;;;;;;0.75;0.50;;;;;15.96;71.22;101398.75;4966100;28;45472;-72
2021/09/29 02:56:01;;;;;;;;;1.75;0.00;;;;;15.96;71.15;101397.91;4988984;28;45398;-72
2021/09/29 02:58:27;;;;;;;;;2.00;1.00;;;;;15.96;71.43;101409.34;4976800;28;45507;-72
2021/09/29 03:00:55;;;;;;;;;0.25;0.25;;;;;15.95;71.27;101406.81;4977088;28;45675;-72
2021/09/29 03:03:21;;;;;;;;;0.00;0.00;;;;;15.81;71.88;101389.84;4976076;28;45426;-72
2021/09/29 03:05:48;;;;;;;;;1.00;1.00;;;;;15.89;72.19;101403.53;4976706;28;45499;-72
2021/09/29 03:08:14;;;;;;;;;0.25;0.25;;;;;15.89;72.09;101408.84;4977134;28;45472;-72
2021/09/29 03:10:41;;;;;;;;;1.50;0.00;;;;;15.90;72.32;101407.03;4976973;28;45424;-72
2021/09/29 03:13:07;;;;;;;;;2.00;0.00;;;;;15.93;72.52;101411.34;4967592;28;45474;-72
2021/09/29 03:15:33;;;;;;;;;1.00;1.00;;;;;15.95;72.14;101404.16;4970308;28;45511;-72
2021/09/29 03:17:58;;;;;;;;;3.00;1.00;;;;;15.95;72.70;101412.97;4976925;28;45316;-72
2021/09/29 03:20:25;;;;;;;;;1.25;1.00;;;;;15.99;72.79;101411.00;4975682;28;46227;-72
2021/09/29 03:22:51;;;;;;;;;1.00;1.00;;;;;16.00;72.68;101410.91;4962057;28;45321;-72
2021/09/29 03:25:16;;;;;;;;;0.00;0.00;;;;;16.04;72.28;101401.84;4974739;28;45305;-72
2021/09/29 03:27:42;;;;;;;;;1.25;1.25;;;;;16.05;72.79;101400.06;4970702;28;45453;-72
2021/09/29 03:30:08;;;;;;;;;2.00;0.25;;;;;16.09;72.96;101401.59;4972551;28;45495;-72
2021/09/29 03:32:33;;;;;;;;;2.25;1.00;;;;;16.08;72.72;101397.25;4976054;28;45513;-72
2021/09/29 03:34:59;;;;;;;;;0.50;0.50;;;;;16.10;72.63;101395.34;4975268;28;45610;-72
2021/09/29 03:37:24;;;;;;;;;0.25;0.25;;;;;16.16;72.88;101410.91;4976809;28;45271;-72
2021/09/29 03:39:49;;;;;;;;;0.00;0.00;;;;;16.07;72.86;101390.22;4975384;28;45362;-72
2021/09/29 03:42:15;;;;;;;;;1.00;1.00;;;;;16.18;72.67;101401.06;4976225;28;45503;-72
2021/09/29 03:44:40;;;;;;;;;3.25;1.75;;;;;16.08;72.81;101392.78;4976101;28;45855;-72
2021/09/29 03:47:05;;;;;;;;;1.00;0.00;;;;;16.20;73.14;101403.66;4960863;28;45531;-72
2021/09/29 03:49:31;;;;;;;;;1.75;0.00;;;;;16.19;72.52;101400.16;4976504;28;46484;-73
2021/09/29 03:51:56;;;;;;;;;1.00;1.00;;;;;16.20;73.02;101407.16;4971298;28;45392;-72
2021/09/29 03:54:21;;;;;;;;;0.25;0.25;;;;;16.19;73.15;101408.09;4966270;28;45475;-72
2021/09/29 03:56:47;;;;;;;;;2.50;1.00;;;;;16.19;73.04;101394.84;4975742;28;45492;-72
2021/09/29 03:59:12;;;;;;;;;2.50;1.25;;;;;16.15;73.02;101399.47;4975631;28;46431;-72
2021/09/29 04:01:38;;;;;;;;;2.75;1.50;;;;;16.12;73.27;101407.56;4976498;28;45424;-72
2021/09/29 04:04:03;;;;;;;;;0.75;0.75;;;;;16.08;73.38;101408.72;4975968;28;45395;-72
2021/09/29 04:06:29;;;;;;;;;1.00;1.00;;;;;16.06;73.41;101399.09;4975931;28;45505;-72
2021/09/29 04:08:55;;;;;;;;;1.00;0.25;;;;;16.06;73.54;101413.22;4988741;28;46516;-72
2021/09/29 04:11:21;;;;;;;;;0.75;0.75;;;;;16.05;73.47;101397.41;4978813;28;45709;-72
2021/09/29 04:13:46;;;;;;;;;1.75;0.50;;;;;16.04;73.78;101403.66;4961972;28;45350;-72
2021/09/29 04:16:11;;;;;;;;;1.50;1.00;;;;;16.00;73.89;101410.91;4972559;28;45443;-72
2021/09/29 04:18:37;;;;;;;;;0.25;0.25;;;;;16.02;74.18;101398.41;4969633;28;46631;-72
2021/09/29 04:21:03;;;;;;;;;0.00;0.00;;;;;16.01;73.99;101409.97;4973135;28;45487;-72
2021/09/29 04:23:28;;;;;;;;;2.00;2.00;;;;;15.87;74.16;101393.97;4960465;28;45342;-72
2021/09/29 04:25:54;;;;;;;;;1.25;1.25;;;;;15.86;74.63;101406.34;4976496;28;45620;-72
2021/09/29 04:28:20;;;;;;;;;2.00;2.00;;;;;15.79;74.63;101412.94;4975521;28;46055;-72
2021/09/29 04:30:46;;;;;;;;;2.00;0.50;;;;;15.78;75.13;101413.88;4975747;28;45650;-72
2021/09/29 04:33:11;;;;;;;;;2.50;1.00;;;;;15.72;75.42;101414.22;4975783;28;45376;-72
2021/09/29 04:35:38;;;;;;;;;1.00;1.00;;;;;15.75;75.90;101410.53;4975866;28;45534;-72
2021/09/29 04:38:04;;;;;;;;;1.50;1.00;;;;;15.74;75.67;101422.06;4974935;28;46987;-72
2021/09/29 04:40:30;;;;;;;;;1.50;1.50;;;;;15.77;75.65;101421.91;4976071;28;45533;-72
2021/09/29 04:42:55;;;;;;;;;1.00;1.00;;;;;15.78;76.45;101429.78;4969897;28;45576;-72
2021/09/29 04:45:21;;;;;;;;;0.00;0.00;;;;;15.79;77.27;101428.84;4973650;28;45367;-72
2021/09/29 04:47:47;;;;;;;;;3.00;1.00;;;;;15.78;77.00;101421.81;4974728;28;48037;-72
2021/09/29 04:50:12;;;;;;;;;2.75;1.25;;;;;15.79;77.11;101426.19;4959102;28;46068;-72
2021/09/29 04:52:38;;;;;;;;;2.25;2.25;;;;;15.73;76.91;101423.88;4974564;28;45585;-72
2021/09/29 04:55:03;;;;;;;;;1.25;1.25;;;;;15.73;77.07;101429.16;4974733;28;47789;-72
2021/09/29 04:57:29;;;;;;;;;1.50;1.00;;;;;15.60;77.95;101414.81;4974447;28;45258;-72
2021/09/29 04:59:55;;;;;;;;;2.00;1.00;;;;;15.67;77.96;101432.16;4974966;28;45302;-72
2021/09/29 05:02:20;;;;;;;;;1.00;1.00;;;;;15.65;78.00;101434.84;4973153;28;45319;-73
2021/09/29 05:04:45;;;;;;;;;2.25;2.25;;;;;15.61;79.66;101435.94;4986342;28;45522;-72
2021/09/29 05:07:20;;;;;;;;;3.00;1.50;;;;;15.56;79.10;101423.88;4963359;28;48104;-72
2021/09/29 05:09:46;;;;;;;;;1.00;1.00;;;;;15.60;78.66;101434.22;4968717;28;45907;-72
2021/09/29 05:12:28;;;;;;;;;1.00;1.00;;;;;15.62;78.71;101439.44;4965879;28;45607;-72
2021/09/29 05:14:55;;;;;;;;;2.75;1.00;;;;;15.63;79.23;101455.28;4975004;28;45512;-73
2021/09/29 05:17:21;;;;;;;;;1.00;1.00;;;;;15.64;79.23;101467.59;4974144;28;46378;-73
2021/09/29 05:19:46;;;;;;;;;1.25;1.25;;;;;15.69;78.43;101483.25;4974335;28;45392;-73
2021/09/29 05:22:12;;;;;;;;;1.75;1.00;;;;;15.71;79.49;101491.13;4974436;28;45495;-73
2021/09/29 05:24:37;;;;;;;;;0.00;0.00;;;;;15.70;77.93;101494.72;4973031;28;47994;-73
2021/09/29 05:27:03;;;;;;;;;0.75;0.75;;;;;15.63;77.74;101502.13;4974289;28;45531;-72
2021/09/29 05:29:29;;;;;;;;;0.00;0.00;;;;;15.60;78.00;101496.94;4974604;28;45537;-72
2021/09/29 05:31:55;;;;;;;;;1.50;0.00;;;;;15.52;77.93;101486.75;4960199;28;45545;-72
2021/09/29 05:34:20;;;;;;;;;0.00;0.00;;;;;15.49;77.32;101497.50;4974502;28;45550;-72
2021/09/29 05:36:45;;;;;;;;;0.00;0.00;;;;;15.42;77.29;101490.81;4974473;28;46125;-71
2021/09/29 05:39:12;;;;;;;;;0.00;0.00;;;;;15.37;77.64;101504.28;4974380;28;45634;-71
2021/09/29 05:41:38;;;;;;;;;0.00;0.00;;;;;15.32;77.70;101513.41;4973382;28;45317;-71
2021/09/29 05:44:03;;;;;;;;;0.00;0.00;;;;;15.29;77.74;101516.19;4968550;28;45597;-72
2021/09/29 05:46:30;;;;;;;;;0.25;0.00;;;;;15.28;77.69;101518.00;4970129;28;46661;-71
2021/09/29 05:48:55;;;;;;;;;1.00;0.00;;;;;15.24;77.98;101524.38;4969043;28;45692;-71
2021/09/29 05:51:21;;;;;;;;;3.00;0.00;;;;;15.22;77.88;101534.19;4968884;28;45566;-72
2021/09/29 05:53:46;;;;;;;;;0.00;0.00;;;;;15.22;77.96;101542.13;4963955;28;45500;-71
2021/09/29 05:56:13;;;;;;;;;0.00;0.00;;;;;15.19;78.45;101534.34;4972119;28;55320;-71
2021/09/29 05:58:40;;;;;;;;;1.00;0.00;;;;;15.19;77.76;101541.41;4970610;28;45647;-71
2021/09/29 06:01:05;;;;;;;;;0.00;0.00;;;;;15.16;78.32;101541.59;4967264;28;45531;-71
2021/09/29 06:03:30;;;;;;;;;0.00;0.00;;;;;15.18;77.85;101543.22;4972793;28;45430;-71
2021/09/29 06:05:56;;;;;;;;;1.50;0.00;;;;;15.18;77.85;101559.09;4977883;28;45360;-71
2021/09/29 06:08:21;;;;;;;;;0.00;0.00;;;;;15.20;78.03;101556.41;4971374;28;45385;-72
2021/09/29 06:10:46;;;;;;;;;1.50;0.00;;;;;15.21;78.04;101569.56;4963473;28;45496;-72
2021/09/29 06:13:12;;;;;;;;;2.00;1.00;;;;;15.18;77.73;101564.38;4976923;28;45344;-72
2021/09/29 06:15:37;;;;;;;;;0.00;0.00;;;;;15.21;77.79;101580.13;4974516;28;45605;-72
2021/09/29 06:18:03;;;;;;;;;2.75;1.00;;;;;15.23;77.72;101580.91;4975694;28;45424;-72
2021/09/29 06:20:35;;;;;;;;;0.00;0.00;;;;;15.21;77.65;101584.59;4974727;28;45263;-72
2021/09/29 06:23:02;;;;;;;;;0.00;0.00;;;;;15.20;77.73;101577.56;4978134;28;45451;-72
2021/09/29 06:25:28;;;;;;;;;0.00;0.00;;;;;15.22;78.12;101587.16;4966127;28;46318;-72
2021/09/29 06:27:53;;;;;;;;;0.75;0.75;;;;;15.25;77.89;101596.75;4973753;28;45405;-72
2021/09/29 06:30:19;;;;;;;;;0.00;0.00;;;;;15.22;78.04;101597.75;4977749;28;45383;-72
2021/09/29 06:32:45;;;;;;;;;1.75;0.00;;;;;15.27;77.19;101606.31;4975720;28;45518;-72
2021/09/29 06:35:11;;;;;;;;;0.25;0.25;;;;;15.24;77.84;101611.75;4977482;28;46512;-72
2021/09/29 06:37:41;;;;;;;;;0.00;0.00;;;;;15.31;77.92;101631.72;4964972;28;45374;-72
2021/09/29 06:40:09;;;;;;;;;0.50;0.50;;;;;15.33;77.69;101640.44;4975737;28;45453;-72
2021/09/29 06:42:34;;;;;;;;;0.00;0.00;;;;;15.35;77.25;101641.25;4977425;28;45391;-72
2021/09/29 06:44:59;;;;;;;;;1.00;0.00;;;;;15.33;77.78;101643.09;4977298;28;46414;-72
2021/09/29 06:47:25;;;;;;;;;0.75;0.00;;;;;15.32;77.79;101632.56;4961025;28;45307;-72
2021/09/29 06:49:50;;;;;;;;;3.25;0.00;;;;;15.35;77.07;101640.38;4962876;28;53517;-72
2021/09/29 06:52:15;;;;;;;;;1.00;0.00;;;;;15.32;77.48;101632.56;4975998;28;55461;-72
2021/09/29 06:54:40;;;;;;;;;1.00;1.00;;;;;15.40;77.56;101660.44;4977071;28;46705;-72
2021/09/29 06:57:07;;;;;;;;;0.00;0.00;;;;;15.37;76.60;101649.09;4977126;28;45490;-72
2021/09/29 06:59:35;;;;;;;;;1.00;0.00;;;;;15.46;77.17;101655.75;4977237;28;45378;-72
2021/09/29 07:02:00;;;;;;;;;0.00;0.00;;;;;15.53;76.91;101662.47;4967420;28;45338;-72
2021/09/29 07:04:25;;;;;;;;;0.00;0.00;;;;;15.58;76.76;101665.75;4976443;28;45272;-72
2021/09/29 07:06:51;;;;;;;;;0.00;0.00;;;;;15.69;76.55;101673.19;4991396;28;45361;-72
2021/09/29 07:09:16;;;;;;;;;0.00;0.00;;;;;15.75;76.10;101678.19;4972253;28;45278;-72
2021/09/29 07:11:41;;;;;;;;;0.00;0.00;;;;;15.86;76.72;101694.41;4969319;28;45558;-72
2021/09/29 07:14:07;;;;;;;;;0.25;0.25;;;;;15.99;76.56;101684.06;4989504;28;46992;-72
2021/09/29 07:16:32;;;;;;;;;0.00;0.00;;;;;16.13;76.42;101689.50;4976980;28;45481;-72
2021/09/29 07:19:02;;;;;;;;;1.00;0.00;;;;;16.31;75.48;101690.38;4970123;28;45413;-72
2021/09/29 07:21:27;;;;;;;;;0.00;0.00;;;;;16.53;75.60;101695.41;4972097;28;45450;-72
2021/09/29 07:23:52;;;;;;;;;3.00;0.00;;;;;16.67;74.69;101696.41;4968438;28;45461;-72
2021/09/29 07:26:18;;;;;;;;;0.00;0.00;;;;;16.69;74.36;101698.97;4964951;28;49814;-72
2021/09/29 07:28:43;;;;;;;;;0.00;0.00;;;;;16.77;74.12;101696.81;4977620;28;45470;-72
2021/09/29 07:31:09;;;;;;;;;0.00;0.00;;;;;16.87;73.35;101703.34;4974439;28;45832;-72
2021/09/29 07:33:35;;;;;;;;;0.25;0.25;;;;;17.02;73.78;101696.34;4966959;28;45530;-72
2021/09/29 07:36:01;;;;;;;;;0.00;0.00;;;;;17.45;73.78;101702.78;4973190;28;45696;-72
2021/09/29 07:38:28;;;;;;;;;0.00;0.00;;;;;18.02;71.97;101712.00;4965616;28;45444;-72
2021/09/29 07:40:54;;;;;;;;;1.00;0.00;;;;;18.44;70.85;101714.78;4975560;28;45371;-72
2021/09/29 07:43:19;;;;;;;;;2.00;1.00;;;;;18.76;70.66;101720.81;4974175;28;46503;-72
2021/09/29 07:45:44;;;;;;;;;0.00;0.00;;;;;18.97;69.25;101721.28;4963944;28;45467;-72
2021/09/29 07:48:10;;;;;;;;;0.50;0.50;;;;;19.16;68.86;101729.00;4964444;28;45383;-72
2021/09/29 07:50:35;;;;;;;;;0.00;0.00;;;;;19.33;68.27;101735.91;4974094;28;45442;-72
2021/09/29 07:53:01;;;;;;;;;0.00;0.00;;;;;19.60;67.68;101741.31;4960372;28;46152;-72
2021/09/29 07:55:26;;;;;;;;;1.50;1.00;;;;;19.62;67.14;101746.53;4976548;28;45705;-72
2021/09/29 07:57:51;;;;;;;;;0.00;0.00;;;;;19.39;66.67;101740.84;4976256;28;45423;-72
2021/09/29 08:00:18;;;;;;;;;0.00;0.00;;;;;19.15;66.77;101745.06;4975934;28;45394;-72
2021/09/29 08:02:44;;;;;;;;;1.75;0.00;;;;;18.92;67.04;101752.69;4964677;28;45657;-72
2021/09/29 08:05:10;;;;;;;;;3.25;0.50;;;;;18.82;66.89;101746.22;4976781;28;45351;-72
2021/09/29 08:07:37;;;;;;;;;1.25;0.75;;;;;19.93;68.40;101748.91;4976801;28;45381;-72
2021/09/29 08:10:03;;;;;;;;;2.75;1.00;;;;;20.97;64.37;101760.50;4976177;28;45775;-72
2021/09/29 08:12:28;;;;;;;;;0.00;0.00;;;;;21.92;65.64;101763.50;4975926;28;46379;-72
2021/09/29 08:14:54;;;;;;;;;2.00;0.00;;;;;23.60;60.87;101755.75;4975767;28;45367;-72
2021/09/29 08:17:20;;;;;;;;;1.25;1.00;;;;;24.43;61.58;101768.53;4976142;28;45281;-72
2021/09/29 08:19:45;;;;;;;;;3.25;2.00;;;;;24.35;57.63;101771.00;4976697;28;45332;-72
2021/09/29 08:22:12;;;;;;;;;1.75;0.00;;;;;25.85;57.19;101768.63;4975703;28;46431;-72
2021/09/29 08:24:49;;;;;;;;;1.00;0.25;;;;;26.10;54.24;101775.28;4975857;28;45560;-72
2021/09/29 08:34:48;;;;;;;;;0.50;0.50;;;;;31.95;49.35;101783.38;4976661;28;45459;-71
2021/09/29 08:39:54;;;;;;;;;0.00;0.00;;;;;35.20;42.47;101795.50;4975748;28;45432;-70
2021/09/29 08:45:08;;;;;;;;;0.00;0.00;;;;;37.78;39.73;101811.91;4975956;28;45515;-71
2021/09/29 08:52:54;;;;;;;;;0.00;0.00;;;;;40.35;34.23;101817.59;4976164;28;45372;-71
2021/09/29 09:17:31;;;;;;;;;0.00;0.00;;;;;43.90;24.86;101864.00;4959636;28;45320;-71
2021/09/29 09:20:19;;;;;;;;;0.00;0.00;;;;;44.21;24.60;101863.22;4972157;28;45481;-71
2021/09/29 09:22:51;;;;;;;;;0.50;0.00;;;;;43.90;24.18;101862.06;4961762;28;45394;-71
2021/09/29 09:25:18;;;;;;;;;1.00;0.00;;;;;44.30;24.95;101863.56;4974218;28;45522;-71
2021/09/29 09:27:47;;;;;;;;;1.25;0.00;;;;;43.59;23.11;101862.81;4974110;28;45408;-71
2021/09/29 09:30:28;;;;;;;;;0.75;0.00;;;;;42.70;23.18;101856.34;4975095;28;45417;-71
2021/09/29 09:32:56;;;;;;;;;0.00;0.00;;;;;41.88;24.42;101878.94;4966523;28;45448;-71
2021/09/29 09:35:23;;;;;;;;;0.50;0.50;;;;;41.52;24.77;101874.63;4959317;28;45623;-71
2021/09/29 09:37:56;;;;;;;;;0.00;0.00;;;;;41.21;23.77;101884.16;4975309;28;45545;-71
2021/09/29 09:40:21;;;;;;;;;0.00;0.00;;;;;39.65;25.23;101870.50;4974658;28;45368;-71
2021/09/29 09:42:51;;;;;;;;;0.00;0.00;;;;;37.22;25.37;101885.75;4974711;28;45414;-71
2021/09/29 09:45:27;;;;;;;;;0.00;0.00;;;;;34.81;27.11;101889.78;4974638;28;47308;-71
2021/09/29 09:47:52;;;;;;;;;0.00;0.00;;;;;32.49;28.71;101886.69;4974833;28;45246;-71
2021/09/29 09:50:28;;;;;;;;;1.00;0.00;;;;;31.54;30.14;101886.00;4975339;28;45286;-71
2021/09/29 09:52:54;;;;;;;;;0.00;0.00;;;;;31.19;30.84;101888.97;4971251;28;45420;-71
2021/09/29 09:55:23;;;;;;;;;0.25;0.00;;;;;30.21;30.99;101896.22;4974183;28;46562;-71
2021/09/29 09:57:56;;;;;;;;;0.00;0.00;;;;;29.96;32.44;101889.88;4974547;28;45524;-71
2021/09/29 10:00:27;;;;;;;;;0.00;0.00;;;;;30.77;32.67;101897.34;4974841;28;45424;-71
2021/09/29 10:02:55;;;;;;;;;1.00;1.00;;;;;31.76;32.47;101901.53;4962840;28;45388;-71
2021/09/29 10:05:23;;;;;;;;;0.00;0.00;;;;;32.56;31.91;101908.56;4974685;28;45653;-71
2021/09/29 10:07:49;;;;;;;;;0.00;0.00;;;;;33.49;31.55;101900.06;4974870;28;45346;-71
2021/09/29 10:27:22;;;;;;;;;0.00;0.00;;;;;29.42;31.53;101915.53;4872417;29;45427;-71
2021/09/29 10:29:55;;;;;;;;;0.00;0.00;;;;;29.20;31.67;101915.06;4873682;28;45668;-71
2021/09/29 10:32:26;;;;;;;;;0.50;0.00;;;;;28.54;32.46;101915.50;4874947;29;45664;-71
2021/09/29 10:35:01;;;;;;;;;1.00;0.00;;;;;27.65;32.40;101924.22;4876184;29;45446;-71
2021/09/29 10:43:00;;;;;;;;;0.00;0.00;;;;;25.97;34.88;101929.94;4875146;28;45604;-71
2021/09/29 10:45:35;;;;;;;;;0.25;0.25;;;;;25.47;35.05;101923.59;4875617;29;45349;-71
2021/09/29 11:07:50;;;;;;;;;1.00;0.50;;;;;21.85;45.21;101986.06;4976883;28;45706;-70
2021/09/29 11:29:20;;;;;;;;;0.75;0.75;;;;;23.65;46.37;102017.44;4977508;28;45861;-71
2021/09/29 11:31:55;;;;;;;;;0.00;0.00;;;;;23.78;45.61;102016.47;4964939;28;46501;-71
2021/09/29 11:34:26;;;;;;;;;1.00;1.00;;;;;23.82;44.80;102018.78;4976302;28;45435;-70
2021/09/29 12:12:28;;;;;;;;;0.00;0.00;;;;;21.50;43.58;102081.28;4973900;28;45342;-70
2021/09/29 12:15:15;;;;;;;;;0.00;0.00;;;;;21.06;44.79;102077.06;4973857;28;45649;-70
2021/09/29 12:17:41;;;;;;;;;0.00;0.00;;;;;20.89;45.47;102078.19;4959454;28;45717;-70
2021/09/29 12:20:12;;;;;;;;;0.00;0.00;;;;;21.04;46.78;102071.00;4973353;28;45901;-71
2021/09/29 12:22:46;;;;;;;;;0.00;0.00;;;;;21.48;46.10;102075.19;4962887;28;45448;-71
2021/09/29 12:25:16;;;;;;;;;0.00;0.00;;;;;21.79;46.18;102073.97;4974251;28;46503;-71
2021/09/29 12:30:23;;;;;;;;;0.00;0.00;;;;;22.38;44.93;102059.06;4964493;28;45850;-71
2021/09/29 12:35:51;;;;;;;;;0.00;0.00;;;;;22.06;44.09;102072.03;4966039;28;45907;-71
2021/09/29 12:38:18;;;;;;;;;1.00;0.00;;;;;21.95;45.18;102061.22;4975610;28;45682;-71
2021/09/29 12:40:45;;;;;;;;;13.25;10.25;;;;;22.00;44.18;102083.19;4975923;28;45455;-70
2021/09/29 12:43:13;;;;;;;;;0.00;0.00;;;;;22.01;44.43;102059.94;4975596;28;45482;-71
2021/09/29 12:45:43;;;;;;;;;0.00;0.00;;;;;21.99;44.34;102064.56;4975507;28;46549;-69
2021/09/29 12:48:11;;;;;;;;;0.00;0.00;;;;;21.92;43.99;102066.78;4974411;28;45823;-69
2021/09/29 12:50:48;;;;;;;;;0.00;0.00;;;;;21.84;44.51;102075.34;4986681;28;45359;-70
2021/09/29 12:53:29;;;;;;;;;1.00;0.00;;;;;21.82;43.61;102073.72;4974155;28;45478;-69
2021/09/29 12:55:59;;;;;;;;;5.25;2.00;;;;;21.80;43.45;102075.66;4963434;28;46226;-69
2021/09/29 12:58:24;;;;;;;;;0.25;0.25;;;;;21.75;44.02;102077.81;4975173;28;45305;-69
2021/09/29 13:00:50;;;;;;;;;0.00;0.00;;;;;21.76;44.51;102080.38;4972360;28;45497;-69
2021/09/29 13:03:16;;;;;;;;;47.00;39.50;;;;;21.72;43.97;102078.88;4973550;28;45512;-69
2021/09/29 13:05:42;;;;;;;;;6.50;5.75;;;;;21.71;43.74;102085.19;4974491;28;45437;-69
2021/09/29 13:08:08;;;;;;;;;1.00;0.50;;;;;21.68;43.99;102089.91;4968146;28;46002;-69
2021/09/29 13:10:34;;;;;;;;;0.00;0.00;;;;;21.71;43.59;102087.84;4963052;28;45400;-69
2021/09/29 13:12:59;;;;;;;;;1.75;0.00;;;;;21.74;43.73;102086.81;4970789;28;45541;-69
2021/09/29 13:15:25;;;;;;;;;1.00;0.00;;;;;21.58;43.78;102077.16;4974733;28;46644;-69
2021/09/29 13:17:53;;;;;;;;;0.00;0.00;;;;;21.62;43.63;102096.53;4973281;28;45851;-70
2021/09/29 13:20:22;;;;;;;;;0.50;0.50;;;;;21.48;43.91;102102.81;4971252;28;45463;-70
2021/09/29 13:23:15;;;;;;;;;0.50;0.00;;;;;21.20;43.53;102117.13;4974535;28;45860;-70
2021/09/29 13:36:36;;;;;;;;;0.75;0.25;;;;;20.24;46.40;102144.59;4969357;28;45371;-69
2021/09/29 13:39:08;;;;;;;;;0.00;0.00;;;;;20.23;46.59;102148.22;4963053;28;45536;-69
2021/09/29 13:41:34;;;;;;;;;0.50;0.00;;;;;20.20;46.04;102151.06;4960070;28;45337;-69
2021/09/29 13:43:59;;;;;;;;;0.75;0.00;;;;;20.15;45.86;102151.38;4965541;28;45494;-69
2021/09/29 13:46:25;;;;;;;;;0.00;0.00;;;;;20.11;45.69;102157.84;4975194;28;45341;-69
2021/09/29 13:48:52;;;;;;;;;0.00;0.00;;;;;20.03;45.61;102150.28;4969232;28;45549;-69
2021/09/29 13:51:18;;;;;;;;;0.00;0.00;;;;;20.08;45.71;102148.19;4963882;28;45368;-69
2021/09/29 13:53:43;;;;;;;;;0.50;0.00;;;;;20.24;45.64;102157.94;4973684;28;45440;-69
2021/09/29 13:56:11;;;;;;;;;0.75;0.00;;;;;20.42;46.00;102153.28;4958956;28;46465;-70
2021/09/29 14:30:44;;;;;;;;;0.00;0.00;;;;;19.98;45.75;102189.72;4969014;28;45367;-70